Time;durP1;ratioP1;P1;durP2;ratioP2;P2;SDS_P1;SDS_P2;PMS_P1;PMS_P2;Temp;Humidity;BMP_temperature;BMP_pressure;BME280_temperature;BME280_humidity;BME280_pressure;Samples;Min_cycle;Max_cycle;Signal;HPM_P1;HPM_P2
2022/05/04 00:01:46;;;;;;;7.68;1.73;;;8.40;99.90;;;;;;5037433;28;20452;-83
2022/05/04 00:04:12;;;;;;;5.90;1.52;;;9.10;99.90;;;;;;5041460;28;20044;-83
2022/05/04 00:06:38;;;;;;;8.45;2.08;;;8.40;99.90;;;;;;5044543;28;20045;-82
2022/05/04 00:09:04;;;;;;;8.55;2.22;;;8.40;99.90;;;;;;5039965;28;20046;-83
2022/05/04 00:11:29;;;;;;;10.43;2.40;;;8.10;99.90;;;;;;5043945;28;20419;-83
2022/05/04 00:13:55;;;;;;;10.40;2.00;;;8.30;99.90;;;;;;5042911;28;20042;-83
2022/05/04 00:16:21;;;;;;;6.78;1.90;;;8.30;99.90;;;;;;5048826;28;20041;-83
2022/05/04 00:18:46;;;;;;;9.00;1.90;;;8.30;99.90;;;;;;5052020;28;20435;-83
2022/05/04 00:21:12;;;;;;;8.57;2.17;;;8.30;99.90;;;;;;5047037;28;20136;-82
2022/05/04 00:23:38;;;;;;;9.35;1.98;;;8.30;99.90;;;;;;5039521;28;20120;-82
2022/05/04 00:26:03;;;;;;;8.27;1.92;;;8.30;99.90;;;;;;5047178;28;20040;-82
2022/05/04 00:28:29;;;;;;;8.80;1.98;;;8.20;99.90;;;;;;5040448;28;20492;-83
2022/05/04 00:30:55;;;;;;;6.70;2.33;;;8.10;99.90;;;;;;5040791;28;20045;-83
2022/05/04 00:33:20;;;;;;;7.95;1.98;;;8.20;99.90;;;;;;5040249;28;20040;-82
2022/05/04 00:35:46;;;;;;;8.90;2.15;;;8.10;99.90;;;;;;5038238;28;20044;-83
2022/05/04 00:38:12;;;;;;;9.93;2.20;;;8.10;99.90;;;;;;5042866;28;20060;-82
2022/05/04 00:40:37;;;;;;;8.85;2.08;;;8.60;99.90;;;;;;5047960;28;20387;-82
2022/05/04 00:43:03;;;;;;;9.55;2.10;;;8.00;99.90;;;;;;5039592;28;20103;-83
2022/05/04 00:45:29;;;;;;;8.38;2.30;;;7.50;99.90;;;;;;5042032;28;20036;-83
2022/05/04 00:47:54;;;;;;;8.43;2.22;;;8.00;99.90;;;;;;5049679;28;20044;-82
2022/05/04 00:50:20;;;;;;;8.70;1.95;;;8.00;99.90;;;;;;5047168;28;20049;-82
2022/05/04 00:52:49;;;;;;;7.43;2.65;;;8.00;99.90;;;;;;5047910;28;20041;-83
2022/05/04 00:55:18;;;;;;;8.80;2.00;;;8.60;99.90;;;;;;5041591;28;20074;-83
2022/05/04 01:00:30;;;;;;;10.48;2.45;;;8.00;99.90;;;;;;5043411;28;20592;-82
2022/05/04 01:02:56;;;;;;;8.70;1.88;;;8.00;99.90;;;;;;5039954;28;20063;-83
2022/05/04 01:05:22;;;;;;;6.63;2.30;;;8.20;99.90;;;;;;5049970;28;20120;-82
2022/05/04 01:07:50;;;;;;;7.45;2.05;;;8.70;99.90;;;;;;5046466;28;20462;-83
2022/05/04 01:10:16;;;;;;;7.53;2.38;;;8.00;99.90;;;;;;5041950;28;20045;-83
2022/05/04 01:12:50;;;;;;;7.15;2.08;;;8.00;99.90;;;;;;5048442;28;20099;-83
2022/05/04 01:15:17;;;;;;;7.85;2.20;;;8.90;99.90;;;;;;5044844;28;20036;-82
2022/05/04 01:17:43;;;;;;;9.63;2.00;;;7.90;99.90;;;;;;5048440;28;20077;-82
2022/05/04 01:20:09;;;;;;;6.60;1.77;;;8.00;99.90;;;;;;5046225;28;20411;-83
2022/05/04 01:22:36;;;;;;;10.27;2.17;;;7.90;99.90;;;;;;5043881;28;20037;-83
2022/05/04 01:25:02;;;;;;;12.30;2.55;;;8.00;99.90;;;;;;5037699;28;20928;-82
2022/05/04 01:27:28;;;;;;;8.55;2.10;;;7.90;99.90;;;;;;5044964;28;20098;-83
2022/05/04 01:29:54;;;;;;;6.15;1.70;;;7.90;99.90;;;;;;5047301;28;20500;-82
2022/05/04 01:32:19;;;;;;;8.55;1.95;;;7.90;99.90;;;;;;5046568;28;20045;-82
2022/05/04 01:34:45;;;;;;;6.20;1.70;;;7.90;99.90;;;;;;5045906;28;20193;-83
2022/05/04 01:37:10;;;;;;;6.55;2.22;;;7.90;99.90;;;;;;5045581;28;20048;-82
2022/05/04 01:39:36;;;;;;;7.93;2.22;;;7.90;99.90;;;;;;5042120;28;20048;-83
2022/05/04 01:42:15;;;;;;;10.77;2.60;;;7.90;99.90;;;;;;5039945;28;20064;-82
2022/05/04 01:44:43;;;;;;;8.40;1.88;;;7.90;99.90;;;;;;5039789;28;20049;-83
2022/05/04 01:47:08;;;;;;;6.50;1.80;;;7.90;99.90;;;;;;5043089;28;20044;-82
2022/05/04 01:49:34;;;;;;;9.32;2.03;;;7.50;99.90;;;;;;5039982;28;20131;-83
2022/05/04 01:52:00;;;;;;;7.68;2.10;;;8.00;99.90;;;;;;5048244;28;20073;-83
2022/05/04 01:54:26;;;;;;;6.78;2.28;;;7.90;99.90;;;;;;5042955;28;20179;-82
2022/05/04 01:56:52;;;;;;;6.60;2.45;;;7.90;99.90;;;;;;5048579;28;20095;-83
2022/05/04 01:59:18;;;;;;;8.23;2.13;;;7.90;99.90;;;;;;5045530;28;20044;-81
2022/05/04 02:01:44;;;;;;;10.48;2.08;;;8.40;99.90;;;;;;5045240;28;20377;-82
2022/05/04 02:04:10;;;;;;;10.30;2.00;;;8.20;99.90;;;;;;5039396;28;20045;-83
2022/05/04 02:06:37;;;;;;;10.32;2.08;;;8.00;99.90;;;;;;5045403;28;20090;-83
2022/05/04 02:09:03;;;;;;;10.15;2.38;;;8.00;99.90;;;;;;5040026;28;20088;-83
2022/05/04 02:11:32;;;;;;;11.60;2.63;;;7.60;99.90;;;;;;5044778;28;20044;-83
2022/05/04 02:14:00;;;;;;;5.80;1.95;;;8.00;99.90;;;;;;5040939;28;20045;-82
2022/05/04 02:16:26;;;;;;;10.77;2.00;;;8.00;99.90;;;;;;5040511;28;20057;-83
2022/05/04 02:18:52;;;;;;;10.77;2.35;;;8.60;99.90;;;;;;5046307;28;20049;-83
2022/05/04 02:21:18;;;;;;;11.93;2.58;;;8.00;99.90;;;;;;5037999;28;20507;-82
2022/05/04 02:23:44;;;;;;;8.85;2.17;;;8.00;99.90;;;;;;5038583;28;20044;-83
2022/05/04 02:26:09;;;;;;;8.80;2.20;;;8.00;99.90;;;;;;5041157;28;20146;-83
2022/05/04 02:28:35;;;;;;;7.78;2.22;;;8.00;99.90;;;;;;5041162;28;20157;-83
2022/05/04 02:31:01;;;;;;;9.55;2.35;;;8.00;99.90;;;;;;5043967;28;20086;-83
2022/05/04 02:33:27;;;;;;;12.23;2.67;;;8.00;99.90;;;;;;5043383;28;20113;-83
2022/05/04 02:38:37;;;;;;;8.75;2.35;;;8.20;99.90;;;;;;5044721;28;20105;-83
2022/05/04 02:41:03;;;;;;;7.25;2.67;;;8.00;99.90;;;;;;5041384;28;20499;-83
2022/05/04 02:43:28;;;;;;;7.85;2.05;;;8.00;99.90;;;;;;5040851;28;20638;-83
2022/05/04 02:45:55;;;;;;;9.02;2.30;;;8.00;99.90;;;;;;5047581;28;20085;-83
2022/05/04 02:48:21;;;;;;;9.65;2.05;;;8.10;99.90;;;;;;5043912;28;20041;-82
2022/05/04 02:50:47;;;;;;;10.23;2.33;;;8.00;99.90;;;;;;5048896;28;20051;-82
2022/05/04 02:53:12;;;;;;;9.07;1.90;;;8.00;99.90;;;;;;5044765;28;20131;-83
2022/05/04 02:55:38;;;;;;;9.95;2.75;;;8.00;99.90;;;;;;5044685;28;20179;-83
2022/05/04 02:58:04;;;;;;;7.65;2.20;;;8.00;99.90;;;;;;5039983;28;20053;-83
2022/05/04 03:00:30;;;;;;;14.40;2.50;;;8.00;99.90;;;;;;5045464;28;20052;-82
2022/05/04 03:02:56;;;;;;;8.65;2.20;;;8.60;99.90;;;;;;5043654;28;20045;-82
2022/05/04 03:05:22;;;;;;;8.05;2.63;;;7.90;99.90;;;;;;5044566;28;20055;-83
2022/05/04 03:07:48;;;;;;;8.57;2.50;;;7.90;99.90;;;;;;5043430;28;20095;-83
2022/05/04 03:10:14;;;;;;;12.88;2.30;;;7.90;99.90;;;;;;5045351;28;20201;-83
2022/05/04 03:12:40;;;;;;;9.75;2.78;;;7.90;99.90;;;;;;5045350;28;20041;-83
2022/05/04 03:15:07;;;;;;;8.35;2.55;;;8.00;99.90;;;;;;5037739;28;20083;-83
2022/05/04 03:17:33;;;;;;;9.35;2.45;;;7.90;99.90;;;;;;5033112;28;20092;-82
2022/05/04 03:19:59;;;;;;;7.78;2.50;;;7.80;99.90;;;;;;5036561;28;20042;-82
2022/05/04 03:22:25;;;;;;;12.73;2.53;;;7.80;99.90;;;;;;5025908;28;20555;-83
2022/05/04 03:24:51;;;;;;;6.28;2.10;;;7.80;99.90;;;;;;5034207;28;20045;-83
2022/05/04 03:27:17;;;;;;;12.02;2.38;;;7.80;99.90;;;;;;5039253;28;20045;-83
2022/05/04 03:29:43;;;;;;;7.82;2.42;;;7.70;99.90;;;;;;5044832;28;20102;-83
2022/05/04 03:32:09;;;;;;;7.03;2.55;;;7.70;99.90;;;;;;5044890;28;20106;-82
2022/05/04 03:34:35;;;;;;;8.63;2.25;;;8.30;99.90;;;;;;5040906;28;20407;-83
2022/05/04 03:37:01;;;;;;;8.48;2.75;;;7.70;99.90;;;;;;5039657;28;20120;-83
2022/05/04 03:39:28;;;;;;;10.95;2.50;;;8.60;99.90;;;;;;5048274;28;20619;-82
2022/05/04 03:41:54;;;;;;;12.55;2.92;;;7.70;99.90;;;;;;5044922;28;20045;-83
2022/05/04 03:44:19;;;;;;;8.77;2.42;;;7.70;99.90;;;;;;5048402;28;20546;-82
2022/05/04 03:46:50;;;;;;;9.57;2.35;;;7.60;99.90;;;;;;5045028;28;20433;-83
2022/05/04 03:49:17;;;;;;;9.73;2.25;;;7.90;99.90;;;;;;5045451;28;20086;-82
2022/05/04 03:51:43;;;;;;;9.40;2.55;;;7.60;99.90;;;;;;5048797;28;20056;-81
2022/05/04 03:54:10;;;;;;;8.68;2.40;;;8.00;99.90;;;;;;5050403;28;20056;-82
2022/05/04 03:56:36;;;;;;;8.07;2.58;;;7.60;99.90;;;;;;5044358;28;20124;-82
2022/05/04 03:59:03;;;;;;;6.88;2.33;;;8.10;99.90;;;;;;5040634;28;20045;-82
2022/05/04 04:01:29;;;;;;;11.27;2.20;;;7.60;99.90;;;;;;5048070;28;20041;-81
2022/05/04 04:03:57;;;;;;;7.57;2.10;;;7.70;99.90;;;;;;5050710;28;20461;-81
2022/05/04 04:06:23;;;;;;;10.80;2.60;;;7.70;99.90;;;;;;5046508;28;20103;-81
2022/05/04 04:08:49;;;;;;;6.32;1.80;;;7.70;99.90;;;;;;5049187;28;20099;-81
2022/05/04 04:11:17;;;;;;;10.75;2.88;;;7.70;99.90;;;;;;5042801;28;20041;-81
2022/05/04 04:13:43;;;;;;;10.02;2.75;;;8.00;99.90;;;;;;5050177;28;20095;-81
2022/05/04 04:16:09;;;;;;;11.30;2.53;;;7.70;99.90;;;;;;5049666;28;20049;-81
2022/05/04 04:18:35;;;;;;;10.20;2.72;;;7.80;99.90;;;;;;5047961;28;20128;-81
2022/05/04 04:23:48;;;;;;;9.35;2.80;;;7.70;99.90;;;;;;5045430;28;20053;-81
2022/05/04 04:26:16;;;;;;;12.68;3.13;;;7.70;99.90;;;;;;5047980;28;20045;-80
2022/05/04 04:28:44;;;;;;;8.27;2.42;;;7.70;99.90;;;;;;5043824;28;20055;-80
2022/05/04 04:31:11;;;;;;;10.10;2.67;;;7.70;99.90;;;;;;5049495;28;20124;-81
2022/05/04 04:33:37;;;;;;;9.85;3.15;;;7.70;99.90;;;;;;5048794;28;20091;-81
2022/05/04 04:36:04;;;;;;;8.85;3.05;;;8.50;99.90;;;;;;5039173;28;20049;-81
2022/05/04 04:38:31;;;;;;;8.13;3.08;;;7.80;99.90;;;;;;5045786;28;20037;-81
2022/05/04 04:40:58;;;;;;;8.98;2.58;;;7.80;99.90;;;;;;5042896;28;20487;-81
2022/05/04 04:43:24;;;;;;;8.07;2.38;;;7.80;99.90;;;;;;5045507;28;20049;-80
2022/05/04 04:45:50;;;;;;;8.55;2.97;;;7.90;99.90;;;;;;5048201;28;20048;-82
2022/05/04 04:48:17;;;;;;;10.63;2.83;;;7.30;99.90;;;;;;5041454;28;20050;-82
2022/05/04 04:50:47;;;;;;;8.18;2.63;;;8.00;99.90;;;;;;5046321;28;20465;-82
2022/05/04 04:53:14;;;;;;;10.95;2.67;;;8.00;99.90;;;;;;5047306;28;20045;-82
2022/05/04 04:55:41;;;;;;;13.63;3.28;;;8.00;99.90;;;;;;5047369;28;20054;-82
2022/05/04 04:58:10;;;;;;;6.75;2.75;;;8.00;99.90;;;;;;5045333;28;20515;-82
2022/05/04 05:00:36;;;;;;;9.80;2.72;;;8.00;99.90;;;;;;5046015;28;20536;-82
2022/05/04 05:03:02;;;;;;;7.80;2.03;;;8.10;99.90;;;;;;5044570;28;20045;-82
2022/05/04 05:05:28;;;;;;;12.80;3.05;;;8.10;99.90;;;;;;5050834;28;20056;-82
2022/05/04 05:07:54;;;;;;;8.02;2.28;;;8.10;99.90;;;;;;5049155;28;20491;-82
2022/05/04 05:10:22;;;;;;;7.78;2.50;;;8.30;99.90;;;;;;5040716;28;20041;-82
2022/05/04 05:12:51;;;;;;;11.07;2.63;;;8.20;99.90;;;;;;5049460;28;20049;-83
2022/05/04 05:18:03;;;;;;;7.80;2.88;;;8.20;99.90;;;;;;5048938;28;20056;-83
2022/05/04 05:20:30;;;;;;;7.75;2.13;;;8.30;99.90;;;;;;5034280;28;20140;-83
2022/05/04 05:22:57;;;;;;;8.95;2.47;;;8.30;99.90;;;;;;5041463;28;20060;-83
2022/05/04 05:25:23;;;;;;;9.57;2.20;;;8.30;99.90;;;;;;5050327;28;20057;-82
2022/05/04 05:27:48;;;;;;;10.55;2.60;;;8.30;99.90;;;;;;5045748;28;20128;-81
2022/05/04 05:30:14;;;;;;;10.35;2.88;;;8.40;99.90;;;;;;5047444;28;20068;-82
2022/05/04 05:32:40;;;;;;;8.98;1.95;;;8.40;99.90;;;;;;5047351;28;20053;-81
2022/05/04 05:35:08;;;;;;;12.52;2.92;;;8.50;99.90;;;;;;5048807;28;20090;-82
2022/05/04 05:37:33;;;;;;;6.57;2.15;;;8.50;99.90;;;;;;5046462;28;20168;-82
2022/05/04 05:40:00;;;;;;;10.10;2.30;;;9.00;99.90;;;;;;5042882;28;20466;-82
2022/05/04 05:42:34;;;;;;;9.27;2.05;;;8.50;99.90;;;;;;5037620;28;20080;-82
2022/05/04 05:44:59;;;;;;;9.90;2.33;;;8.60;99.90;;;;;;5037787;28;20057;-82
2022/05/04 05:47:25;;;;;;;7.43;1.80;;;8.60;99.90;;;;;;5038569;28;20045;-82
2022/05/04 05:49:51;;;;;;;7.07;1.70;;;8.60;99.90;;;;;;5038906;28;20052;-82
2022/05/04 05:52:17;;;;;;;7.78;1.83;;;8.70;99.90;;;;;;5039875;28;20049;-83
2022/05/04 05:54:43;;;;;;;8.70;2.35;;;8.70;99.90;;;;;;5044897;28;20049;-84
2022/05/04 05:57:09;;;;;;;8.98;2.63;;;8.80;99.90;;;;;;5048342;28;20124;-84
2022/05/04 05:59:34;;;;;;;7.20;2.33;;;8.80;99.90;;;;;;5040080;28;20080;-84
2022/05/04 06:02:00;;;;;;;11.20;2.85;;;8.80;99.90;;;;;;5037783;28;20056;-84
2022/05/04 06:04:27;;;;;;;6.20;1.98;;;8.90;99.90;;;;;;5044054;28;20049;-84
2022/05/04 06:06:53;;;;;;;8.98;2.30;;;8.90;99.90;;;;;;5045968;28;20541;-84
2022/05/04 06:09:19;;;;;;;11.07;2.50;;;8.90;99.90;;;;;;5044710;28;20045;-84
2022/05/04 06:11:45;;;;;;;11.60;2.33;;;9.00;99.90;;;;;;5047383;28;20404;-84
2022/05/04 06:14:11;;;;;;;11.55;2.38;;;9.00;99.90;;;;;;5041037;28;20092;-85
2022/05/04 06:16:36;;;;;;;7.28;2.47;;;9.00;99.90;;;;;;5037135;28;20445;-84
2022/05/04 06:19:03;;;;;;;8.50;2.25;;;9.00;99.90;;;;;;5041709;28;20049;-83
2022/05/04 06:21:29;;;;;;;9.80;1.90;;;9.10;99.90;;;;;;5038861;28;20046;-83
2022/05/04 06:23:55;;;;;;;10.20;2.00;;;9.10;99.90;;;;;;5042018;28;20481;-85
2022/05/04 06:26:23;;;;;;;13.38;2.70;;;9.20;99.90;;;;;;5045954;28;20040;-83
2022/05/04 06:28:48;;;;;;;7.57;2.35;;;9.20;99.90;;;;;;5045932;28;20075;-84
2022/05/04 06:34:07;;;;;;;9.10;2.23;;;9.30;99.90;;;;;;5044149;28;20547;-81
2022/05/04 06:36:34;;;;;;;8.02;1.67;;;9.30;99.90;;;;;;5041709;28;20315;-82
2022/05/04 06:39:00;;;;;;;7.82;1.75;;;9.30;99.90;;;;;;5045853;28;20492;-83
2022/05/04 06:41:27;;;;;;;10.27;2.13;;;9.30;99.90;;;;;;5046574;28;20138;-84
2022/05/04 06:43:52;;;;;;;7.78;1.85;;;9.40;99.90;;;;;;5041899;28;20064;-84
2022/05/04 06:46:18;;;;;;;9.75;1.85;;;9.40;99.90;;;;;;5047657;28;20106;-83
2022/05/04 06:48:45;;;;;;;6.63;1.80;;;9.40;99.90;;;;;;5039992;28;20124;-83
2022/05/04 06:51:11;;;;;;;5.68;1.90;;;9.50;99.90;;;;;;5042659;28;20572;-83
2022/05/04 06:53:36;;;;;;;12.13;1.77;;;9.60;99.90;;;;;;5038155;28;20124;-84
2022/05/04 06:56:02;;;;;;;6.20;1.48;;;9.60;99.90;;;;;;5043405;28;20106;-83
2022/05/04 06:58:28;;;;;;;7.30;1.73;;;9.70;99.90;;;;;;5041302;28;20092;-83
2022/05/04 07:00:53;;;;;;;8.63;1.70;;;9.80;99.90;;;;;;5047520;28;20037;-81
2022/05/04 07:03:21;;;;;;;8.10;1.88;;;9.90;99.90;;;;;;5032313;28;20037;-79
2022/05/04 07:05:47;;;;;;;8.60;1.88;;;9.90;99.90;;;;;;5043436;28;20048;-80
2022/05/04 07:08:13;;;;;;;8.98;1.38;;;9.90;99.90;;;;;;5035788;28;20052;-80
2022/05/04 07:10:39;;;;;;;6.38;1.38;;;9.90;99.90;;;;;;5034181;28;20053;-80
2022/05/04 07:13:06;;;;;;;8.15;1.67;;;10.00;99.90;;;;;;5038748;28;20401;-80
2022/05/04 07:15:32;;;;;;;7.93;1.42;;;10.00;99.90;;;;;;5030115;28;20502;-79
2022/05/04 07:17:58;;;;;;;12.55;2.00;;;10.00;99.90;;;;;;5040219;28;20045;-80
2022/05/04 07:20:23;;;;;;;9.10;1.77;;;10.00;99.90;;;;;;5035322;28;20072;-80
2022/05/04 07:22:49;;;;;;;11.23;1.98;;;10.00;99.90;;;;;;5033956;28;19932;-79
2022/05/04 07:25:14;;;;;;;6.97;1.55;;;10.10;99.90;;;;;;5038207;28;20040;-79
2022/05/04 07:27:40;;;;;;;5.65;1.50;;;10.20;99.90;;;;;;5043601;28;20122;-79
2022/05/04 07:30:06;;;;;;;7.07;1.80;;;10.30;99.90;;;;;;5034874;28;20037;-79
2022/05/04 07:32:31;;;;;;;9.45;1.40;;;10.30;99.60;;;;;;5039263;28;20099;-79
2022/05/04 07:34:57;;;;;;;7.72;1.83;;;10.40;99.70;;;;;;5041224;28;20052;-79
2022/05/04 07:37:23;;;;;;;9.13;1.80;;;10.40;99.90;;;;;;5046053;28;20114;-80
2022/05/04 07:42:32;;;;;;;8.90;1.90;;;10.60;99.90;;;;;;5030962;28;20049;-81
2022/05/04 07:45:08;;;;;;;6.78;1.85;;;10.70;99.90;;;;;;5030252;28;20046;-80
2022/05/04 07:47:35;;;;;;;7.25;1.75;;;10.70;99.60;;;;;;5033417;28;20049;-80
2022/05/04 07:50:01;;;;;;;8.32;1.77;;;10.70;99.70;;;;;;5043613;28;20046;-80
2022/05/04 07:52:27;;;;;;;7.18;1.40;;;10.70;99.50;;;;;;5044389;28;20052;-81
2022/05/04 07:54:53;;;;;;;9.05;1.40;;;10.70;99.70;;;;;;5033938;28;20064;-81
2022/05/04 07:57:20;;;;;;;5.85;1.60;;;10.70;99.50;;;;;;5038461;28;20049;-81
2022/05/04 08:05:14;;;;;;;10.75;2.00;;;10.80;99.70;;;;;;5056952;28;20057;-81
2022/05/04 08:07:40;;;;;;;7.63;2.22;;;10.80;99.20;;;;;;5041454;28;20047;-81
2022/05/04 08:10:06;;;;;;;4.93;1.88;;;10.80;99.30;;;;;;5041479;28;20119;-81
2022/05/04 08:12:33;;;;;;;6.07;1.40;;;10.90;99.20;;;;;;5040173;28;20124;-82
2022/05/04 08:14:59;;;;;;;8.63;1.85;;;11.00;99.10;;;;;;5037811;28;20040;-81
2022/05/04 08:17:25;;;;;;;6.38;1.50;;;11.10;98.90;;;;;;5037371;28;20057;-81
2022/05/04 08:19:51;;;;;;;6.25;1.60;;;11.20;99.00;;;;;;5038469;28;20477;-82
2022/05/04 08:22:17;;;;;;;5.50;1.50;;;11.30;99.00;;;;;;5042346;28;20125;-83
2022/05/04 08:24:42;;;;;;;10.07;1.98;;;11.30;98.80;;;;;;5040754;28;20053;-80
2022/05/04 08:27:08;;;;;;;10.95;2.08;;;11.40;98.30;;;;;;5053554;28;20048;-81
2022/05/04 08:29:34;;;;;;;9.35;1.83;;;11.30;97.60;;;;;;5053980;28;20041;-81
2022/05/04 08:31:59;;;;;;;5.32;1.73;;;11.30;98.10;;;;;;5053314;28;20040;-81
2022/05/04 08:34:25;;;;;;;10.52;2.47;;;11.30;97.60;;;;;;5053612;28;20479;-81
2022/05/04 08:36:51;;;;;;;6.55;1.95;;;11.20;97.80;;;;;;5053808;28;20056;-81
2022/05/04 08:39:17;;;;;;;8.77;2.00;;;11.10;97.80;;;;;;5051646;28;20045;-80
2022/05/04 08:41:43;;;;;;;9.10;1.90;;;11.10;98.10;;;;;;5051240;28;20052;-80
2022/05/04 08:44:10;;;;;;;7.20;1.50;;;11.20;97.80;;;;;;5032662;28;20042;-79
2022/05/04 08:46:39;;;;;;;8.32;1.88;;;11.30;97.90;;;;;;5041989;28;20045;-81
2022/05/04 08:49:05;;;;;;;8.82;1.88;;;11.50;98.10;;;;;;5049656;28;20142;-82
2022/05/04 08:51:33;;;;;;;7.78;1.55;;;11.80;97.40;;;;;;5040163;28;20149;-82
2022/05/04 08:53:59;;;;;;;5.03;1.60;;;12.00;96.80;;;;;;5045210;28;20140;-81
2022/05/04 08:56:24;;;;;;;10.85;1.88;;;12.80;96.90;;;;;;5040672;28;20136;-81
2022/05/04 08:58:50;;;;;;;6.47;2.10;;;12.30;96.20;;;;;;5051652;28;20441;-81
2022/05/04 09:01:15;;;;;;;8.05;1.77;;;12.40;96.60;;;;;;5049270;28;20179;-81
2022/05/04 09:03:41;;;;;;;7.80;1.88;;;12.60;96.70;;;;;;5049914;28;20049;-81
2022/05/04 09:06:07;;;;;;;8.45;2.33;;;12.70;96.50;;;;;;5052415;28;20053;-81
2022/05/04 09:08:58;;;;;;;6.93;1.95;;;12.70;95.10;;;;;;5050114;28;20037;-81
2022/05/04 09:11:24;;;;;;;9.45;1.90;;;12.70;95.60;;;;;;5046300;28;20051;-82
2022/05/04 09:13:50;;;;;;;12.65;2.47;;;12.60;95.90;;;;;;5048972;28;20057;-82
2022/05/04 09:16:32;;;;;;;10.20;2.13;;;12.60;95.10;;;;;;5044936;28;20045;-81
2022/05/04 09:19:05;;;;;;;10.43;1.90;;;12.50;95.10;;;;;;5036737;28;20049;-81
2022/05/04 09:21:31;;;;;;;7.55;1.77;;;12.40;94.60;;;;;;5041770;28;20080;-81
2022/05/04 09:23:57;;;;;;;7.75;2.05;;;12.30;95.60;;;;;;5038488;28;20073;-82
2022/05/04 09:26:23;;;;;;;7.88;2.05;;;12.30;95.70;;;;;;5042574;28;20465;-81
2022/05/04 09:28:56;;;;;;;7.13;2.00;;;12.20;95.60;;;;;;5041179;28;20434;-81
2022/05/04 09:31:30;;;;;;;11.20;2.10;;;12.20;95.90;;;;;;5041713;28;20049;-81
2022/05/04 09:34:06;;;;;;;4.35;1.92;;;12.30;95.60;;;;;;5043409;28;20045;-81
2022/05/04 09:45:09;;;;;;;9.65;1.90;;;13.40;93.90;;;;;;5046007;28;20480;-79
2022/05/04 09:47:44;;;;;;;8.65;1.90;;;13.60;93.80;;;;;;5046442;28;20353;-82
2022/05/04 09:50:11;;;;;;;8.65;1.63;;;13.60;93.50;;;;;;5037609;28;20076;-82
2022/05/04 09:52:47;;;;;;;8.50;1.90;;;13.40;94.00;;;;;;5046977;28;20041;-84
2022/05/04 09:55:24;;;;;;;10.63;2.00;;;13.30;93.90;;;;;;5042560;28;20503;-81
2022/05/04 09:57:51;;;;;;;12.48;2.28;;;13.10;94.20;;;;;;5041920;28;20156;-78
2022/05/04 10:00:19;;;;;;;6.78;1.90;;;13.00;94.40;;;;;;5044722;28;20041;-81
2022/05/04 10:02:45;;;;;;;9.38;2.20;;;12.80;94.10;;;;;;5050773;28;20041;-81
2022/05/04 10:05:12;;;;;;;13.20;1.88;;;12.70;94.20;;;;;;5049291;28;20047;-81
2022/05/04 10:07:39;;;;;;;10.30;2.30;;;12.70;94.60;;;;;;5050895;28;20033;-81
2022/05/04 10:10:06;;;;;;;9.52;1.77;;;12.90;93.90;;;;;;5051689;28;20048;-81
2022/05/04 10:12:38;;;;;;;8.55;1.98;;;13.00;93.50;;;;;;5050328;28;20045;-81
2022/05/04 10:15:10;;;;;;;5.53;1.75;;;13.20;93.50;;;;;;5044307;28;20080;-82
2022/05/04 10:17:43;;;;;;;11.48;2.30;;;13.30;93.20;;;;;;5030587;28;20041;-82
2022/05/04 10:20:30;;;;;;;7.68;2.03;;;13.50;93.50;;;;;;5048113;28;20488;-82
2022/05/04 10:22:58;;;;;;;11.88;2.13;;;13.70;93.30;;;;;;5045462;28;20091;-82
2022/05/04 10:25:25;;;;;;;7.00;1.65;;;14.00;93.60;;;;;;5048379;28;20559;-81
2022/05/04 10:27:52;;;;;;;7.88;1.90;;;14.10;92.90;;;;;;5049709;28;20503;-82
2022/05/04 10:30:33;;;;;;;8.15;2.10;;;14.40;93.70;;;;;;5051789;28;20044;-81
2022/05/04 10:33:06;;;;;;;9.48;2.20;;;14.10;93.60;;;;;;5050822;28;20067;-81
2022/05/04 10:35:38;;;;;;;8.40;2.28;;;14.10;92.80;;;;;;5031643;28;20128;-82
2022/05/04 10:38:10;;;;;;;6.15;2.10;;;14.10;93.20;;;;;;5046606;28;20056;-82
2022/05/04 10:40:40;;;;;;;5.57;2.13;;;14.20;92.50;;;;;;5050486;28;20044;-82
2022/05/04 10:43:08;;;;;;;11.65;2.55;;;14.30;92.70;;;;;;5049717;28;20045;-82
2022/05/04 10:45:39;;;;;;;10.32;2.05;;;14.30;92.10;;;;;;5050156;28;20162;-82
2022/05/04 10:48:20;;;;;;;7.05;1.95;;;14.50;92.60;;;;;;5050650;28;20053;-82
2022/05/04 10:50:57;;;;;;;10.95;2.80;;;14.60;92.80;;;;;;5051028;28;20151;-82
2022/05/04 10:53:26;;;;;;;6.93;2.20;;;14.80;92.90;;;;;;5051395;28;20066;-82
2022/05/04 10:56:03;;;;;;;9.27;2.50;;;15.00;92.40;;;;;;5047385;28;20056;-82
2022/05/04 10:58:39;;;;;;;12.75;2.05;;;15.30;92.50;;;;;;5050254;28;20396;-82
2022/05/04 11:01:15;;;;;;;10.18;2.63;;;15.50;91.10;;;;;;5051086;28;20083;-82
2022/05/04 11:04:11;;;;;;;10.43;2.38;;;15.50;91.00;;;;;;5048860;28;20045;-82
2022/05/04 11:06:49;;;;;;;9.23;2.70;;;15.40;92.20;;;;;;5049635;28;20053;-82
2022/05/04 11:09:20;;;;;;;12.05;2.63;;;15.20;91.90;;;;;;5035101;28;20144;-82
2022/05/04 11:11:48;;;;;;;8.98;2.80;;;15.00;91.20;;;;;;5039827;28;20550;-81
2022/05/04 11:14:16;;;;;;;6.57;2.47;;;14.90;92.30;;;;;;5050873;28;20080;-82
2022/05/04 11:16:43;;;;;;;8.68;2.60;;;14.80;92.30;;;;;;5050369;28;20049;-81
2022/05/04 11:19:12;;;;;;;8.32;2.30;;;14.70;92.10;;;;;;5050977;28;20384;-82
2022/05/04 11:21:38;;;;;;;12.25;2.33;;;14.70;92.50;;;;;;5050067;28;20045;-82
2022/05/04 11:24:07;;;;;;;7.72;2.92;;;14.90;92.70;;;;;;5036587;28;20084;-82
2022/05/04 11:26:52;;;;;;;9.70;2.28;;;15.10;92.90;;;;;;5041271;28;20438;-82
2022/05/04 11:29:19;;;;;;;9.52;2.95;;;15.20;91.70;;;;;;5049903;28;20049;-82
2022/05/04 11:31:56;;;;;;;6.22;2.13;;;15.20;90.70;;;;;;5049420;28;20475;-82
2022/05/04 11:34:26;;;;;;;9.10;2.40;;;15.20;91.50;;;;;;5051046;28;20510;-82
2022/05/04 11:36:54;;;;;;;8.27;2.50;;;15.30;91.70;;;;;;5048242;28;20379;-82
2022/05/04 11:39:22;;;;;;;9.02;2.90;;;15.30;91.60;;;;;;5050999;28;20127;-82
2022/05/04 11:41:50;;;;;;;8.27;2.53;;;15.40;92.20;;;;;;5048314;28;20047;-82
2022/05/04 11:44:18;;;;;;;10.55;2.20;;;15.30;91.50;;;;;;5049951;28;20045;-82
2022/05/04 11:46:47;;;;;;;13.13;2.80;;;15.50;92.10;;;;;;5049501;28;20595;-81
2022/05/04 11:49:12;;;;;;;10.48;2.83;;;15.60;91.00;;;;;;5051131;28;20430;-82
2022/05/04 11:51:38;;;;;;;7.88;2.65;;;15.80;90.70;;;;;;5032340;28;20045;-82
2022/05/04 11:54:04;;;;;;;6.43;2.10;;;15.80;90.10;;;;;;5044399;28;20052;-82
2022/05/04 11:56:30;;;;;;;5.82;2.20;;;15.80;90.50;;;;;;5051278;28;20075;-82
2022/05/04 11:58:55;;;;;;;10.65;2.80;;;15.80;90.30;;;;;;5053891;28;20134;-82
2022/05/04 12:01:21;;;;;;;7.35;2.50;;;15.90;89.60;;;;;;5053961;28;20048;-82
2022/05/04 12:03:48;;;;;;;11.18;2.80;;;15.90;89.60;;;;;;5053825;28;20045;-82
2022/05/04 12:06:14;;;;;;;8.07;2.25;;;16.00;89.70;;;;;;5052144;28;20044;-81
2022/05/04 12:08:40;;;;;;;9.30;2.40;;;16.10;90.00;;;;;;5053498;28;20055;-82
2022/05/04 12:11:07;;;;;;;6.60;2.60;;;16.10;89.80;;;;;;5054315;28;20037;-82
2022/05/04 12:13:36;;;;;;;9.30;2.53;;;16.20;88.90;;;;;;5053553;28;20048;-82
2022/05/04 12:16:02;;;;;;;8.38;2.50;;;16.20;87.80;;;;;;5054396;28;20037;-82
2022/05/04 12:18:29;;;;;;;7.75;2.65;;;16.40;90.90;;;;;;5049002;28;20111;-82
2022/05/04 12:20:55;;;;;;;6.55;2.30;;;16.60;90.90;;;;;;5053682;28;20069;-82
2022/05/04 12:23:22;;;;;;;7.88;2.50;;;16.70;85.60;;;;;;5048972;28;20045;-82
2022/05/04 12:25:48;;;;;;;8.75;2.63;;;16.80;89.70;;;;;;5052860;28;20091;-82
2022/05/04 12:28:14;;;;;;;6.07;2.25;;;16.80;89.50;;;;;;5053860;28;20080;-82
2022/05/04 12:33:33;;;;;;;8.68;2.40;;;17.00;88.30;;;;;;5049166;28;20142;-82
2022/05/04 12:36:06;;;;;;;9.30;2.25;;;16.90;87.40;;;;;;5053762;28;20492;-82
2022/05/04 12:38:37;;;;;;;5.95;2.00;;;16.90;90.10;;;;;;5052181;28;20041;-82
2022/05/04 12:41:04;;;;;;;7.95;2.80;;;17.00;89.60;;;;;;5053033;28;20122;-83
2022/05/04 12:43:36;;;;;;;6.47;2.25;;;17.00;88.70;;;;;;5053309;28;20055;-82
2022/05/04 12:46:03;;;;;;;12.80;3.05;;;17.00;86.60;;;;;;5051913;28;20055;-82
2022/05/04 12:48:30;;;;;;;9.63;2.47;;;17.00;90.10;;;;;;5033012;28;20405;-82
2022/05/04 12:50:57;;;;;;;5.55;2.40;;;17.00;88.10;;;;;;5033862;28;20041;-82
2022/05/04 12:53:24;;;;;;;7.63;2.50;;;17.00;85.70;;;;;;5046625;28;20041;-82
2022/05/04 12:58:35;;;;;;;7.18;3.03;;;17.20;88.30;;;;;;5053494;28;20404;-82
2022/05/04 13:01:01;;;;;;;8.35;2.78;;;17.30;89.00;;;;;;5043134;28;20434;-82
2022/05/04 13:03:27;;;;;;;10.27;2.60;;;17.50;89.00;;;;;;5034131;28;20055;-82
2022/05/04 13:05:52;;;;;;;11.98;2.85;;;17.50;87.10;;;;;;5053084;28;20049;-82
2022/05/04 13:08:18;;;;;;;8.02;2.50;;;17.50;85.70;;;;;;5050912;28;20164;-82
2022/05/04 13:10:44;;;;;;;5.55;2.20;;;17.30;83.80;;;;;;5052789;28;20045;-82
2022/05/04 13:13:10;;;;;;;7.65;2.55;;;17.40;84.40;;;;;;5052972;28;20116;-83
2022/05/04 13:15:37;;;;;;;7.95;2.38;;;17.30;84.10;;;;;;5038526;28;20049;-82
2022/05/04 13:18:03;;;;;;;8.88;2.63;;;17.40;84.50;;;;;;5031694;28;20033;-82
2022/05/04 13:20:29;;;;;;;8.70;2.58;;;17.50;84.70;;;;;;5031844;28;20045;-83
2022/05/04 13:22:56;;;;;;;9.38;2.75;;;17.50;84.20;;;;;;5028398;28;20049;-83
2022/05/04 13:25:21;;;;;;;11.30;2.63;;;17.60;84.00;;;;;;5052319;28;20047;-83
2022/05/04 13:27:47;;;;;;;6.65;1.98;;;17.50;79.50;;;;;;5052525;28;20037;-82